sensor_id;sensor_type;location;lat;lon;timestamp;P1;durP1;ratioP1;P2;durP2;ratioP2
31734;SDS011;18313;48.518;9.124;2022-07-15T00:00:16;4.90;;;2.10;;
31734;SDS011;18313;48.518;9.124;2022-07-15T00:02:44;5.93;;;2.00;;
31734;SDS011;18313;48.518;9.124;2022-07-15T00:05:12;6.68;;;2.05;;
31734;SDS011;18313;48.518;9.124;2022-07-15T00:07:40;7.25;;;2.40;;
31734;SDS011;18313;48.518;9.124;2022-07-15T00:10:08;7.40;;;1.90;;
31734;SDS011;18313;48.518;9.124;2022-07-15T00:15:13;4.15;;;2.08;;
31734;SDS011;18313;48.518;9.124;2022-07-15T00:17:42;7.03;;;2.42;;
31734;SDS011;18313;48.518;9.124;2022-07-15T00:20:11;4.40;;;2.10;;
31734;SDS011;18313;48.518;9.124;2022-07-15T00:22:41;3.50;;;1.90;;
31734;SDS011;18313;48.518;9.124;2022-07-15T00:25:09;6.30;;;2.00;;
31734;SDS011;18313;48.518;9.124;2022-07-15T00:27:51;4.03;;;1.75;;
31734;SDS011;18313;48.518;9.124;2022-07-15T00:30:20;4.57;;;1.92;;
31734;SDS011;18313;48.518;9.124;2022-07-15T00:32:50;4.88;;;2.03;;
31734;SDS011;18313;48.518;9.124;2022-07-15T00:35:19;5.07;;;1.88;;
31734;SDS011;18313;48.518;9.124;2022-07-15T00:37:47;6.75;;;2.03;;
31734;SDS011;18313;48.518;9.124;2022-07-15T00:40:15;4.55;;;1.90;;
31734;SDS011;18313;48.518;9.124;2022-07-15T00:42:43;5.85;;;2.13;;
31734;SDS011;18313;48.518;9.124;2022-07-15T00:45:15;5.45;;;1.95;;
31734;SDS011;18313;48.518;9.124;2022-07-15T00:47:51;4.60;;;1.98;;
31734;SDS011;18313;48.518;9.124;2022-07-15T00:50:22;5.63;;;2.00;;
31734;SDS011;18313;48.518;9.124;2022-07-15T00:52:56;4.40;;;1.83;;
31734;SDS011;18313;48.518;9.124;2022-07-15T00:55:40;7.72;;;2.35;;
31734;SDS011;18313;48.518;9.124;2022-07-15T00:58:14;4.15;;;1.77;;
31734;SDS011;18313;48.518;9.124;2022-07-15T01:00:47;3.42;;;1.90;;
31734;SDS011;18313;48.518;9.124;2022-07-15T01:03:17;4.95;;;2.13;;
31734;SDS011;18313;48.518;9.124;2022-07-15T01:05:46;3.72;;;1.75;;
31734;SDS011;18313;48.518;9.124;2022-07-15T01:08:15;4.07;;;2.10;;
31734;SDS011;18313;48.518;9.124;2022-07-15T01:10:47;3.88;;;1.90;;
31734;SDS011;18313;48.518;9.124;2022-07-15T01:13:17;5.97;;;2.00;;
31734;SDS011;18313;48.518;9.124;2022-07-15T01:15:47;4.95;;;2.00;;
31734;SDS011;18313;48.518;9.124;2022-07-15T01:18:16;5.65;;;2.15;;
31734;SDS011;18313;48.518;9.124;2022-07-15T01:20:44;6.43;;;1.92;;
31734;SDS011;18313;48.518;9.124;2022-07-15T01:23:16;5.13;;;2.15;;
31734;SDS011;18313;48.518;9.124;2022-07-15T01:25:44;4.53;;;2.25;;
31734;SDS011;18313;48.518;9.124;2022-07-15T01:28:13;6.40;;;1.92;;
31734;SDS011;18313;48.518;9.124;2022-07-15T01:30:40;5.35;;;2.15;;
31734;SDS011;18313;48.518;9.124;2022-07-15T01:33:08;4.85;;;2.00;;
31734;SDS011;18313;48.518;9.124;2022-07-15T01:35:36;5.03;;;2.20;;
31734;SDS011;18313;48.518;9.124;2022-07-15T01:38:04;5.88;;;2.55;;
31734;SDS011;18313;48.518;9.124;2022-07-15T01:40:32;4.70;;;2.20;;
31734;SDS011;18313;48.518;9.124;2022-07-15T01:43:00;2.67;;;1.90;;
31734;SDS011;18313;48.518;9.124;2022-07-15T01:45:28;4.22;;;2.10;;
31734;SDS011;18313;48.518;9.124;2022-07-15T01:47:56;4.30;;;2.08;;
31734;SDS011;18313;48.518;9.124;2022-07-15T01:50:24;6.03;;;2.00;;
31734;SDS011;18313;48.518;9.124;2022-07-15T01:52:52;5.45;;;2.20;;
31734;SDS011;18313;48.518;9.124;2022-07-15T01:55:20;4.55;;;1.88;;
31734;SDS011;18313;48.518;9.124;2022-07-15T01:57:48;3.45;;;1.95;;
31734;SDS011;18313;48.518;9.124;2022-07-15T02:00:15;6.35;;;2.10;;
31734;SDS011;18313;48.518;9.124;2022-07-15T02:02:44;5.15;;;2.10;;
31734;SDS011;18313;48.518;9.124;2022-07-15T02:05:13;7.07;;;2.20;;
31734;SDS011;18313;48.518;9.124;2022-07-15T02:07:41;5.57;;;2.00;;
31734;SDS011;18313;48.518;9.124;2022-07-15T02:10:09;4.07;;;2.20;;
31734;SDS011;18313;48.518;9.124;2022-07-15T02:12:37;5.15;;;2.30;;
31734;SDS011;18313;48.518;9.124;2022-07-15T02:15:05;4.47;;;2.00;;
31734;SDS011;18313;48.518;9.124;2022-07-15T02:17:33;3.88;;;1.92;;
31734;SDS011;18313;48.518;9.124;2022-07-15T02:20:01;4.22;;;2.40;;
31734;SDS011;18313;48.518;9.124;2022-07-15T02:22:29;4.05;;;2.00;;
31734;SDS011;18313;48.518;9.124;2022-07-15T02:24:57;3.92;;;1.90;;
31734;SDS011;18313;48.518;9.124;2022-07-15T02:27:25;4.63;;;1.85;;
31734;SDS011;18313;48.518;9.124;2022-07-15T02:29:53;4.60;;;2.20;;
31734;SDS011;18313;48.518;9.124;2022-07-15T02:32:22;6.05;;;2.10;;
31734;SDS011;18313;48.518;9.124;2022-07-15T02:34:49;4.65;;;2.17;;
31734;SDS011;18313;48.518;9.124;2022-07-15T02:37:17;4.65;;;2.47;;
31734;SDS011;18313;48.518;9.124;2022-07-15T02:39:45;4.05;;;1.85;;
31734;SDS011;18313;48.518;9.124;2022-07-15T02:42:13;3.95;;;2.20;;
31734;SDS011;18313;48.518;9.124;2022-07-15T02:44:41;5.07;;;2.13;;
31734;SDS011;18313;48.518;9.124;2022-07-15T02:47:09;3.90;;;1.80;;
31734;SDS011;18313;48.518;9.124;2022-07-15T02:49:37;5.32;;;2.15;;
31734;SDS011;18313;48.518;9.124;2022-07-15T02:52:05;3.83;;;1.83;;
31734;SDS011;18313;48.518;9.124;2022-07-15T02:54:33;4.70;;;1.90;;
31734;SDS011;18313;48.518;9.124;2022-07-15T02:57:01;3.22;;;1.85;;
31734;SDS011;18313;48.518;9.124;2022-07-15T02:59:28;4.97;;;2.40;;
31734;SDS011;18313;48.518;9.124;2022-07-15T03:01:56;5.07;;;1.85;;
31734;SDS011;18313;48.518;9.124;2022-07-15T03:04:25;4.28;;;2.10;;
31734;SDS011;18313;48.518;9.124;2022-07-15T03:06:53;4.90;;;2.03;;
31734;SDS011;18313;48.518;9.124;2022-07-15T03:09:20;4.70;;;1.98;;
31734;SDS011;18313;48.518;9.124;2022-07-15T03:11:48;5.85;;;1.67;;
31734;SDS011;18313;48.518;9.124;2022-07-15T03:14:17;5.28;;;2.20;;
31734;SDS011;18313;48.518;9.124;2022-07-15T03:16:47;5.80;;;2.10;;
31734;SDS011;18313;48.518;9.124;2022-07-15T03:19:15;4.07;;;2.25;;
31734;SDS011;18313;48.518;9.124;2022-07-15T03:21:43;5.07;;;2.20;;
31734;SDS011;18313;48.518;9.124;2022-07-15T03:24:11;5.40;;;2.22;;
31734;SDS011;18313;48.518;9.124;2022-07-15T03:26:40;4.97;;;2.35;;
31734;SDS011;18313;48.518;9.124;2022-07-15T03:29:08;4.63;;;2.33;;
31734;SDS011;18313;48.518;9.124;2022-07-15T03:31:36;5.07;;;2.50;;
31734;SDS011;18313;48.518;9.124;2022-07-15T03:34:05;3.05;;;2.05;;
31734;SDS011;18313;48.518;9.124;2022-07-15T03:36:33;7.93;;;2.40;;
31734;SDS011;18313;48.518;9.124;2022-07-15T03:39:00;4.35;;;2.25;;
31734;SDS011;18313;48.518;9.124;2022-07-15T03:41:29;6.05;;;2.70;;
31734;SDS011;18313;48.518;9.124;2022-07-15T03:43:57;4.47;;;2.30;;
31734;SDS011;18313;48.518;9.124;2022-07-15T03:46:25;7.05;;;2.70;;
31734;SDS011;18313;48.518;9.124;2022-07-15T03:48:53;7.22;;;2.72;;
31734;SDS011;18313;48.518;9.124;2022-07-15T03:51:22;3.80;;;2.47;;
31734;SDS011;18313;48.518;9.124;2022-07-15T03:53:52;5.22;;;2.35;;
31734;SDS011;18313;48.518;9.124;2022-07-15T03:56:20;6.80;;;2.72;;
31734;SDS011;18313;48.518;9.124;2022-07-15T03:58:48;6.85;;;2.55;;
31734;SDS011;18313;48.518;9.124;2022-07-15T04:01:16;6.63;;;2.75;;
31734;SDS011;18313;48.518;9.124;2022-07-15T04:03:45;3.90;;;2.38;;
31734;SDS011;18313;48.518;9.124;2022-07-15T04:06:14;3.65;;;2.33;;
31734;SDS011;18313;48.518;9.124;2022-07-15T04:08:43;4.72;;;2.65;;
31734;SDS011;18313;48.518;9.124;2022-07-15T04:11:11;5.50;;;2.72;;
31734;SDS011;18313;48.518;9.124;2022-07-15T04:13:41;4.68;;;2.70;;
31734;SDS011;18313;48.518;9.124;2022-07-15T04:16:09;6.38;;;2.97;;
31734;SDS011;18313;48.518;9.124;2022-07-15T04:18:41;5.78;;;2.88;;
31734;SDS011;18313;48.518;9.124;2022-07-15T04:21:09;8.77;;;3.20;;
31734;SDS011;18313;48.518;9.124;2022-07-15T04:23:38;7.95;;;2.78;;
31734;SDS011;18313;48.518;9.124;2022-07-15T04:26:06;5.05;;;2.60;;
31734;SDS011;18313;48.518;9.124;2022-07-15T04:28:34;5.10;;;2.80;;
31734;SDS011;18313;48.518;9.124;2022-07-15T04:31:02;4.88;;;2.30;;
31734;SDS011;18313;48.518;9.124;2022-07-15T04:33:30;4.20;;;2.47;;
31734;SDS011;18313;48.518;9.124;2022-07-15T04:35:58;5.22;;;2.88;;
31734;SDS011;18313;48.518;9.124;2022-07-15T04:38:25;6.15;;;3.10;;
31734;SDS011;18313;48.518;9.124;2022-07-15T04:40:53;5.68;;;3.13;;
31734;SDS011;18313;48.518;9.124;2022-07-15T04:43:21;7.70;;;3.90;;
31734;SDS011;18313;48.518;9.124;2022-07-15T04:45:49;13.43;;;5.05;;
31734;SDS011;18313;48.518;9.124;2022-07-15T04:48:25;9.70;;;5.20;;
31734;SDS011;18313;48.518;9.124;2022-07-15T04:51:11;10.15;;;5.07;;
31734;SDS011;18313;48.518;9.124;2022-07-15T04:53:40;10.93;;;5.13;;
31734;SDS011;18313;48.518;9.124;2022-07-15T04:56:08;10.95;;;5.15;;
31734;SDS011;18313;48.518;9.124;2022-07-15T04:58:35;9.65;;;4.63;;
31734;SDS011;18313;48.518;9.124;2022-07-15T05:01:04;10.05;;;5.15;;
31734;SDS011;18313;48.518;9.124;2022-07-15T05:03:32;8.98;;;4.18;;
31734;SDS011;18313;48.518;9.124;2022-07-15T05:06:00;8.45;;;3.70;;
31734;SDS011;18313;48.518;9.124;2022-07-15T05:08:29;4.45;;;2.95;;
31734;SDS011;18313;48.518;9.124;2022-07-15T05:10:57;6.80;;;3.33;;
31734;SDS011;18313;48.518;9.124;2022-07-15T05:13:25;5.88;;;3.10;;
31734;SDS011;18313;48.518;9.124;2022-07-15T05:15:53;6.72;;;3.38;;
31734;SDS011;18313;48.518;9.124;2022-07-15T05:18:22;6.25;;;3.30;;
31734;SDS011;18313;48.518;9.124;2022-07-15T05:20:49;6.32;;;3.20;;
31734;SDS011;18313;48.518;9.124;2022-07-15T05:23:17;7.10;;;3.15;;
31734;SDS011;18313;48.518;9.124;2022-07-15T05:25:47;8.57;;;3.40;;
31734;SDS011;18313;48.518;9.124;2022-07-15T05:28:14;6.82;;;2.95;;
31734;SDS011;18313;48.518;9.124;2022-07-15T05:30:43;5.30;;;2.55;;
31734;SDS011;18313;48.518;9.124;2022-07-15T05:33:11;7.80;;;2.95;;
31734;SDS011;18313;48.518;9.124;2022-07-15T05:35:40;4.65;;;2.65;;
31734;SDS011;18313;48.518;9.124;2022-07-15T05:38:07;6.97;;;2.70;;
31734;SDS011;18313;48.518;9.124;2022-07-15T05:40:35;5.65;;;2.70;;
31734;SDS011;18313;48.518;9.124;2022-07-15T05:43:03;4.68;;;2.70;;
31734;SDS011;18313;48.518;9.124;2022-07-15T05:45:31;7.05;;;3.00;;
31734;SDS011;18313;48.518;9.124;2022-07-15T05:47:59;5.15;;;2.78;;
31734;SDS011;18313;48.518;9.124;2022-07-15T05:50:27;7.28;;;2.90;;
31734;SDS011;18313;48.518;9.124;2022-07-15T05:52:55;4.82;;;2.60;;
31734;SDS011;18313;48.518;9.124;2022-07-15T05:55:22;5.50;;;3.03;;
31734;SDS011;18313;48.518;9.124;2022-07-15T05:57:50;7.63;;;2.88;;
31734;SDS011;18313;48.518;9.124;2022-07-15T06:00:19;11.10;;;3.45;;
31734;SDS011;18313;48.518;9.124;2022-07-15T06:02:46;5.47;;;2.75;;
31734;SDS011;18313;48.518;9.124;2022-07-15T06:05:15;5.53;;;2.70;;
31734;SDS011;18313;48.518;9.124;2022-07-15T06:07:43;5.13;;;2.50;;
31734;SDS011;18313;48.518;9.124;2022-07-15T06:10:11;9.23;;;2.70;;
31734;SDS011;18313;48.518;9.124;2022-07-15T06:12:39;10.55;;;2.92;;
31734;SDS011;18313;48.518;9.124;2022-07-15T06:15:07;8.70;;;2.60;;
31734;SDS011;18313;48.518;9.124;2022-07-15T06:17:35;6.00;;;2.40;;
31734;SDS011;18313;48.518;9.124;2022-07-15T06:20:04;5.07;;;2.70;;
31734;SDS011;18313;48.518;9.124;2022-07-15T06:25:06;6.80;;;2.47;;
31734;SDS011;18313;48.518;9.124;2022-07-15T06:27:35;4.85;;;2.45;;
31734;SDS011;18313;48.518;9.124;2022-07-15T06:30:03;7.35;;;2.60;;
31734;SDS011;18313;48.518;9.124;2022-07-15T06:32:32;5.35;;;2.60;;
31734;SDS011;18313;48.518;9.124;2022-07-15T06:35:01;6.72;;;2.88;;
31734;SDS011;18313;48.518;9.124;2022-07-15T06:37:29;14.23;;;3.47;;
31734;SDS011;18313;48.518;9.124;2022-07-15T06:39:57;4.20;;;2.38;;
31734;SDS011;18313;48.518;9.124;2022-07-15T06:42:25;5.32;;;2.40;;
31734;SDS011;18313;48.518;9.124;2022-07-15T06:44:53;7.55;;;2.53;;
31734;SDS011;18313;48.518;9.124;2022-07-15T06:47:21;4.80;;;2.40;;
31734;SDS011;18313;48.518;9.124;2022-07-15T06:49:49;6.85;;;3.08;;
31734;SDS011;18313;48.518;9.124;2022-07-15T06:52:18;4.32;;;2.00;;
31734;SDS011;18313;48.518;9.124;2022-07-15T06:54:46;8.40;;;2.58;;
31734;SDS011;18313;48.518;9.124;2022-07-15T06:57:14;6.65;;;2.40;;
31734;SDS011;18313;48.518;9.124;2022-07-15T06:59:46;5.07;;;2.40;;
31734;SDS011;18313;48.518;9.124;2022-07-15T07:02:14;7.03;;;2.67;;
31734;SDS011;18313;48.518;9.124;2022-07-15T07:04:43;7.78;;;1.90;;
31734;SDS011;18313;48.518;9.124;2022-07-15T07:07:12;6.35;;;2.30;;
31734;SDS011;18313;48.518;9.124;2022-07-15T07:09:40;4.78;;;1.80;;
31734;SDS011;18313;48.518;9.124;2022-07-15T07:12:09;8.20;;;1.92;;
31734;SDS011;18313;48.518;9.124;2022-07-15T07:14:38;7.18;;;2.00;;
31734;SDS011;18313;48.518;9.124;2022-07-15T07:17:06;5.15;;;1.90;;
31734;SDS011;18313;48.518;9.124;2022-07-15T07:19:34;3.70;;;1.80;;
31734;SDS011;18313;48.518;9.124;2022-07-15T07:22:02;5.18;;;1.75;;
31734;SDS011;18313;48.518;9.124;2022-07-15T07:24:31;4.40;;;1.70;;
31734;SDS011;18313;48.518;9.124;2022-07-15T07:26:59;4.60;;;1.67;;
31734;SDS011;18313;48.518;9.124;2022-07-15T07:29:33;4.57;;;1.60;;
31734;SDS011;18313;48.518;9.124;2022-07-15T07:32:01;5.70;;;1.50;;
31734;SDS011;18313;48.518;9.124;2022-07-15T07:34:30;3.10;;;1.33;;
31734;SDS011;18313;48.518;9.124;2022-07-15T07:36:58;4.93;;;1.60;;
31734;SDS011;18313;48.518;9.124;2022-07-15T07:39:26;5.10;;;1.88;;
31734;SDS011;18313;48.518;9.124;2022-07-15T07:41:54;5.45;;;1.58;;
31734;SDS011;18313;48.518;9.124;2022-07-15T07:44:22;5.60;;;1.63;;
31734;SDS011;18313;48.518;9.124;2022-07-15T07:46:50;3.55;;;1.60;;
31734;SDS011;18313;48.518;9.124;2022-07-15T07:49:18;6.53;;;1.70;;
31734;SDS011;18313;48.518;9.124;2022-07-15T07:52:02;6.50;;;1.63;;
31734;SDS011;18313;48.518;9.124;2022-07-15T07:54:30;5.05;;;1.60;;
31734;SDS011;18313;48.518;9.124;2022-07-15T07:57:01;3.65;;;1.55;;
31734;SDS011;18313;48.518;9.124;2022-07-15T07:59:30;7.15;;;1.60;;
31734;SDS011;18313;48.518;9.124;2022-07-15T08:01:58;4.53;;;1.70;;
31734;SDS011;18313;48.518;9.124;2022-07-15T08:04:27;5.00;;;1.70;;
31734;SDS011;18313;48.518;9.124;2022-07-15T08:06:56;5.55;;;1.73;;
31734;SDS011;18313;48.518;9.124;2022-07-15T08:09:24;7.05;;;1.60;;
31734;SDS011;18313;48.518;9.124;2022-07-15T08:11:53;4.75;;;1.50;;
31734;SDS011;18313;48.518;9.124;2022-07-15T08:14:21;5.97;;;1.75;;
31734;SDS011;18313;48.518;9.124;2022-07-15T08:16:50;6.55;;;2.00;;
31734;SDS011;18313;48.518;9.124;2022-07-15T08:19:18;8.60;;;1.90;;
31734;SDS011;18313;48.518;9.124;2022-07-15T08:21:47;5.47;;;1.58;;
31734;SDS011;18313;48.518;9.124;2022-07-15T08:24:15;7.18;;;1.60;;
31734;SDS011;18313;48.518;9.124;2022-07-15T08:26:43;4.93;;;1.65;;
31734;SDS011;18313;48.518;9.124;2022-07-15T08:29:11;5.82;;;1.55;;
31734;SDS011;18313;48.518;9.124;2022-07-15T08:31:39;5.60;;;1.60;;
31734;SDS011;18313;48.518;9.124;2022-07-15T08:34:07;4.07;;;1.50;;
31734;SDS011;18313;48.518;9.124;2022-07-15T08:36:35;3.40;;;1.40;;
31734;SDS011;18313;48.518;9.124;2022-07-15T08:39:03;5.55;;;1.60;;
31734;SDS011;18313;48.518;9.124;2022-07-15T08:41:35;4.03;;;1.70;;
31734;SDS011;18313;48.518;9.124;2022-07-15T08:44:04;4.65;;;1.50;;
31734;SDS011;18313;48.518;9.124;2022-07-15T08:46:35;3.75;;;1.50;;
31734;SDS011;18313;48.518;9.124;2022-07-15T08:49:07;6.82;;;1.58;;
31734;SDS011;18313;48.518;9.124;2022-07-15T08:51:43;4.15;;;1.50;;
31734;SDS011;18313;48.518;9.124;2022-07-15T08:54:14;3.38;;;1.35;;
31734;SDS011;18313;48.518;9.124;2022-07-15T08:56:43;4.63;;;1.40;;
31734;SDS011;18313;48.518;9.124;2022-07-15T08:59:13;3.67;;;1.50;;
31734;SDS011;18313;48.518;9.124;2022-07-15T09:01:43;5.85;;;1.60;;
31734;SDS011;18313;48.518;9.124;2022-07-15T09:04:13;3.22;;;1.50;;
31734;SDS011;18313;48.518;9.124;2022-07-15T09:06:42;3.45;;;1.38;;
31734;SDS011;18313;48.518;9.124;2022-07-15T09:11:55;3.38;;;1.42;;
31734;SDS011;18313;48.518;9.124;2022-07-15T09:14:35;3.80;;;1.58;;
31734;SDS011;18313;48.518;9.124;2022-07-15T09:19:56;5.78;;;1.50;;
31734;SDS011;18313;48.518;9.124;2022-07-15T09:22:29;5.05;;;1.20;;
31734;SDS011;18313;48.518;9.124;2022-07-15T09:27:37;2.97;;;1.47;;
31734;SDS011;18313;48.518;9.124;2022-07-15T09:33:08;7.05;;;1.75;;
31734;SDS011;18313;48.518;9.124;2022-07-15T09:41:28;3.00;;;1.50;;
31734;SDS011;18313;48.518;9.124;2022-07-15T09:44:18;3.42;;;1.40;;
31734;SDS011;18313;48.518;9.124;2022-07-15T09:46:48;4.75;;;1.70;;
31734;SDS011;18313;48.518;9.124;2022-07-15T09:52:05;3.83;;;1.42;;
31734;SDS011;18313;48.518;9.124;2022-07-15T09:54:36;5.50;;;1.50;;
31734;SDS011;18313;48.518;9.124;2022-07-15T09:57:05;3.13;;;1.45;;
31734;SDS011;18313;48.518;9.124;2022-07-15T09:59:35;6.28;;;1.50;;
31734;SDS011;18313;48.518;9.124;2022-07-15T10:02:08;4.28;;;1.50;;
31734;SDS011;18313;48.518;9.124;2022-07-15T10:04:37;5.85;;;1.90;;
31734;SDS011;18313;48.518;9.124;2022-07-15T10:07:06;3.70;;;1.35;;
31734;SDS011;18313;48.518;9.124;2022-07-15T10:09:54;4.40;;;1.60;;
31734;SDS011;18313;48.518;9.124;2022-07-15T10:12:41;4.18;;;1.60;;
31734;SDS011;18313;48.518;9.124;2022-07-15T10:21:51;6.63;;;1.63;;
31734;SDS011;18313;48.518;9.124;2022-07-15T10:24:20;3.63;;;1.27;;
31734;SDS011;18313;48.518;9.124;2022-07-15T10:29:45;3.10;;;1.40;;
31734;SDS011;18313;48.518;9.124;2022-07-15T10:32:14;3.60;;;1.50;;
31734;SDS011;18313;48.518;9.124;2022-07-15T10:34:44;4.40;;;1.52;;
31734;SDS011;18313;48.518;9.124;2022-07-15T10:37:12;3.53;;;1.80;;
31734;SDS011;18313;48.518;9.124;2022-07-15T10:42:15;3.95;;;1.65;;
31734;SDS011;18313;48.518;9.124;2022-07-15T10:47:28;3.88;;;1.55;;
31734;SDS011;18313;48.518;9.124;2022-07-15T10:49:57;5.65;;;1.90;;
31734;SDS011;18313;48.518;9.124;2022-07-15T10:52:29;5.55;;;1.90;;
31734;SDS011;18313;48.518;9.124;2022-07-15T10:55:03;3.90;;;1.85;;
31734;SDS011;18313;48.518;9.124;2022-07-15T11:05:34;3.38;;;1.40;;
31734;SDS011;18313;48.518;9.124;2022-07-15T11:13:43;3.13;;;1.58;;
31734;SDS011;18313;48.518;9.124;2022-07-15T11:16:16;3.93;;;1.70;;
31734;SDS011;18313;48.518;9.124;2022-07-15T11:18:49;4.28;;;1.65;;
31734;SDS011;18313;48.518;9.124;2022-07-15T11:21:21;3.60;;;1.77;;
31734;SDS011;18313;48.518;9.124;2022-07-15T11:23:50;3.88;;;1.65;;
31734;SDS011;18313;48.518;9.124;2022-07-15T11:26:19;2.75;;;1.63;;
31734;SDS011;18313;48.518;9.124;2022-07-15T11:28:50;7.35;;;2.38;;
31734;SDS011;18313;48.518;9.124;2022-07-15T11:31:22;5.15;;;1.75;;
31734;SDS011;18313;48.518;9.124;2022-07-15T11:33:54;4.18;;;1.50;;
31734;SDS011;18313;48.518;9.124;2022-07-15T11:36:23;3.88;;;1.60;;
31734;SDS011;18313;48.518;9.124;2022-07-15T11:38:52;5.40;;;1.60;;
31734;SDS011;18313;48.518;9.124;2022-07-15T11:41:20;3.13;;;1.63;;
31734;SDS011;18313;48.518;9.124;2022-07-15T11:44:07;3.40;;;1.70;;
31734;SDS011;18313;48.518;9.124;2022-07-15T11:46:57;4.75;;;1.90;;
31734;SDS011;18313;48.518;9.124;2022-07-15T11:49:30;4.05;;;1.67;;
31734;SDS011;18313;48.518;9.124;2022-07-15T11:52:03;3.55;;;1.80;;
31734;SDS011;18313;48.518;9.124;2022-07-15T11:54:35;4.50;;;2.03;;
31734;SDS011;18313;48.518;9.124;2022-07-15T11:57:08;5.35;;;1.80;;
31734;SDS011;18313;48.518;9.124;2022-07-15T11:59:39;4.72;;;1.60;;
31734;SDS011;18313;48.518;9.124;2022-07-15T12:02:11;4.85;;;1.70;;
31734;SDS011;18313;48.518;9.124;2022-07-15T12:04:41;4.43;;;1.92;;
31734;SDS011;18313;48.518;9.124;2022-07-15T12:07:10;3.42;;;1.80;;
31734;SDS011;18313;48.518;9.124;2022-07-15T12:12:51;3.15;;;1.60;;
31734;SDS011;18313;48.518;9.124;2022-07-15T12:15:24;4.35;;;1.88;;
31734;SDS011;18313;48.518;9.124;2022-07-15T12:17:52;5.65;;;1.98;;
31734;SDS011;18313;48.518;9.124;2022-07-15T12:20:22;3.72;;;1.80;;
31734;SDS011;18313;48.518;9.124;2022-07-15T12:25:31;3.60;;;1.80;;
31734;SDS011;18313;48.518;9.124;2022-07-15T12:27:59;5.10;;;2.00;;
31734;SDS011;18313;48.518;9.124;2022-07-15T12:30:32;4.40;;;2.03;;
31734;SDS011;18313;48.518;9.124;2022-07-15T12:35:45;2.83;;;1.70;;
31734;SDS011;18313;48.518;9.124;2022-07-15T12:38:25;5.22;;;2.17;;
31734;SDS011;18313;48.518;9.124;2022-07-15T12:41:04;4.05;;;1.75;;
31734;SDS011;18313;48.518;9.124;2022-07-15T12:43:45;3.45;;;1.70;;
31734;SDS011;18313;48.518;9.124;2022-07-15T12:46:15;5.20;;;2.00;;
31734;SDS011;18313;48.518;9.124;2022-07-15T12:48:44;3.65;;;1.75;;
31734;SDS011;18313;48.518;9.124;2022-07-15T12:51:15;4.63;;;1.92;;
31734;SDS011;18313;48.518;9.124;2022-07-15T12:53:44;3.15;;;1.55;;
31734;SDS011;18313;48.518;9.124;2022-07-15T12:56:12;4.72;;;1.95;;
31734;SDS011;18313;48.518;9.124;2022-07-15T12:58:41;5.25;;;1.77;;
31734;SDS011;18313;48.518;9.124;2022-07-15T13:01:09;5.63;;;2.13;;
31734;SDS011;18313;48.518;9.124;2022-07-15T13:03:42;3.67;;;1.70;;
31734;SDS011;18313;48.518;9.124;2022-07-15T13:06:10;4.00;;;2.00;;
31734;SDS011;18313;48.518;9.124;2022-07-15T13:08:42;3.63;;;1.67;;
31734;SDS011;18313;48.518;9.124;2022-07-15T13:11:10;4.97;;;2.00;;
31734;SDS011;18313;48.518;9.124;2022-07-15T13:13:39;6.05;;;1.73;;
31734;SDS011;18313;48.518;9.124;2022-07-15T13:16:07;4.95;;;1.73;;
31734;SDS011;18313;48.518;9.124;2022-07-15T13:18:36;6.68;;;2.03;;
31734;SDS011;18313;48.518;9.124;2022-07-15T13:21:04;5.50;;;1.90;;
31734;SDS011;18313;48.518;9.124;2022-07-15T13:23:33;4.22;;;1.73;;
31734;SDS011;18313;48.518;9.124;2022-07-15T13:26:01;5.22;;;2.00;;
31734;SDS011;18313;48.518;9.124;2022-07-15T13:28:29;4.13;;;1.60;;
31734;SDS011;18313;48.518;9.124;2022-07-15T13:30:57;3.28;;;1.70;;
31734;SDS011;18313;48.518;9.124;2022-07-15T13:33:25;3.25;;;1.52;;
31734;SDS011;18313;48.518;9.124;2022-07-15T13:35:53;3.67;;;1.90;;
31734;SDS011;18313;48.518;9.124;2022-07-15T13:38:24;4.45;;;1.80;;
31734;SDS011;18313;48.518;9.124;2022-07-15T13:40:52;5.88;;;1.80;;
31734;SDS011;18313;48.518;9.124;2022-07-15T13:43:20;5.18;;;1.90;;
31734;SDS011;18313;48.518;9.124;2022-07-15T13:45:48;2.60;;;1.65;;
31734;SDS011;18313;48.518;9.124;2022-07-15T13:48:16;4.53;;;1.85;;
31734;SDS011;18313;48.518;9.124;2022-07-15T13:50:44;4.45;;;1.70;;
31734;SDS011;18313;48.518;9.124;2022-07-15T13:53:30;4.45;;;1.60;;
31734;SDS011;18313;48.518;9.124;2022-07-15T13:55:58;5.28;;;1.70;;
31734;SDS011;18313;48.518;9.124;2022-07-15T13:58:26;7.10;;;2.08;;
31734;SDS011;18313;48.518;9.124;2022-07-15T14:00:55;5.13;;;1.77;;
31734;SDS011;18313;48.518;9.124;2022-07-15T14:03:23;8.50;;;1.67;;
31734;SDS011;18313;48.518;9.124;2022-07-15T14:05:51;7.28;;;1.80;;
31734;SDS011;18313;48.518;9.124;2022-07-15T14:08:19;4.53;;;1.63;;
31734;SDS011;18313;48.518;9.124;2022-07-15T14:10:47;4.60;;;1.80;;
31734;SDS011;18313;48.518;9.124;2022-07-15T14:13:15;6.45;;;2.38;;
31734;SDS011;18313;48.518;9.124;2022-07-15T14:15:43;6.50;;;1.60;;
31734;SDS011;18313;48.518;9.124;2022-07-15T14:18:11;4.70;;;1.70;;
31734;SDS011;18313;48.518;9.124;2022-07-15T14:20:39;4.57;;;1.80;;
31734;SDS011;18313;48.518;9.124;2022-07-15T14:23:08;6.35;;;1.98;;
31734;SDS011;18313;48.518;9.124;2022-07-15T14:25:36;3.85;;;1.70;;
31734;SDS011;18313;48.518;9.124;2022-07-15T14:28:04;4.85;;;1.58;;
31734;SDS011;18313;48.518;9.124;2022-07-15T14:30:32;5.43;;;2.13;;
31734;SDS011;18313;48.518;9.124;2022-07-15T14:33:01;5.20;;;1.98;;
31734;SDS011;18313;48.518;9.124;2022-07-15T14:35:29;5.03;;;1.80;;
31734;SDS011;18313;48.518;9.124;2022-07-15T14:37:57;5.82;;;1.70;;
31734;SDS011;18313;48.518;9.124;2022-07-15T14:40:24;5.95;;;1.95;;
31734;SDS011;18313;48.518;9.124;2022-07-15T14:42:52;5.25;;;1.77;;
31734;SDS011;18313;48.518;9.124;2022-07-15T14:45:20;7.30;;;1.73;;
31734;SDS011;18313;48.518;9.124;2022-07-15T14:47:48;3.72;;;1.60;;
31734;SDS011;18313;48.518;9.124;2022-07-15T14:50:16;3.83;;;1.67;;
31734;SDS011;18313;48.518;9.124;2022-07-15T14:52:49;4.07;;;1.70;;
31734;SDS011;18313;48.518;9.124;2022-07-15T14:55:17;5.82;;;1.75;;
31734;SDS011;18313;48.518;9.124;2022-07-15T14:57:45;4.20;;;1.70;;
31734;SDS011;18313;48.518;9.124;2022-07-15T15:00:13;4.60;;;1.70;;
31734;SDS011;18313;48.518;9.124;2022-07-15T15:02:41;3.42;;;1.70;;
31734;SDS011;18313;48.518;9.124;2022-07-15T15:05:10;8.80;;;3.50;;
31734;SDS011;18313;48.518;9.124;2022-07-15T15:07:38;7.10;;;1.90;;
31734;SDS011;18313;48.518;9.124;2022-07-15T15:10:06;4.03;;;1.67;;
31734;SDS011;18313;48.518;9.124;2022-07-15T15:12:35;3.53;;;1.80;;
31734;SDS011;18313;48.518;9.124;2022-07-15T15:15:03;4.28;;;1.80;;
31734;SDS011;18313;48.518;9.124;2022-07-15T15:17:32;5.57;;;1.77;;
31734;SDS011;18313;48.518;9.124;2022-07-15T15:20:08;9.93;;;2.10;;
31734;SDS011;18313;48.518;9.124;2022-07-15T15:22:36;4.88;;;1.80;;
31734;SDS011;18313;48.518;9.124;2022-07-15T15:25:05;3.83;;;1.80;;
31734;SDS011;18313;48.518;9.124;2022-07-15T15:27:34;6.97;;;2.08;;
31734;SDS011;18313;48.518;9.124;2022-07-15T15:30:03;7.78;;;2.45;;
31734;SDS011;18313;48.518;9.124;2022-07-15T15:32:32;4.40;;;1.85;;
31734;SDS011;18313;48.518;9.124;2022-07-15T15:35:00;6.95;;;1.98;;
31734;SDS011;18313;48.518;9.124;2022-07-15T15:37:28;4.35;;;1.67;;
31734;SDS011;18313;48.518;9.124;2022-07-15T15:39:55;4.03;;;1.60;;
31734;SDS011;18313;48.518;9.124;2022-07-15T15:42:23;4.03;;;1.63;;
31734;SDS011;18313;48.518;9.124;2022-07-15T15:44:51;4.72;;;1.80;;
31734;SDS011;18313;48.518;9.124;2022-07-15T15:47:19;6.40;;;1.83;;
31734;SDS011;18313;48.518;9.124;2022-07-15T15:49:47;3.35;;;1.60;;
31734;SDS011;18313;48.518;9.124;2022-07-15T15:52:15;3.58;;;1.63;;
31734;SDS011;18313;48.518;9.124;2022-07-15T15:54:43;5.63;;;1.63;;
31734;SDS011;18313;48.518;9.124;2022-07-15T15:57:11;5.28;;;1.90;;
31734;SDS011;18313;48.518;9.124;2022-07-15T15:59:41;4.47;;;1.52;;
31734;SDS011;18313;48.518;9.124;2022-07-15T16:02:09;3.60;;;1.60;;